Time;durP1;ratioP1;P1;durP2;ratioP2;P2;SDS_P1;SDS_P2;PMS_P1;PMS_P2;Temp;Humidity;BMP_temperature;BMP_pressure;BME280_temperature;BME280_humidity;BME280_pressure;Samples;Min_cycle;Max_cycle;Signal;HPM_P1;HPM_P2
2023/12/20 00:01:48;;;;;;;260.75;120.43;;;51.50;2227.20;;;;;;5070781;28;20430;-65
2023/12/20 00:04:13;;;;;;;284.58;128.90;;;51.50;2227.20;;;;;;5069985;28;20047;-67
2023/12/20 00:06:39;;;;;;;342.50;143.57;;;51.50;2227.20;;;;;;5072263;28;20033;-66
2023/12/20 00:09:05;;;;;;;352.70;149.15;;;51.50;2227.20;;;;;;5074675;28;20024;-66
2023/12/20 00:11:30;;;;;;;343.10;151.55;;;51.40;2227.20;;;;;;5055592;28;20044;-69
2023/12/20 00:13:56;;;;;;;390.85;161.15;;;51.40;2227.20;;;;;;5074571;28;20032;-67
2023/12/20 00:16:21;;;;;;;369.55;161.48;;;51.40;2227.20;;;;;;5073002;28;20055;-66
2023/12/20 00:18:50;;;;;;;391.55;168.95;;;51.40;2227.20;;;;;;5075113;28;20506;-69
2023/12/20 00:21:16;;;;;;;378.50;171.60;;;51.40;2227.20;;;;;;5075805;28;20099;-69
2023/12/20 00:23:42;;;;;;;358.17;160.18;;;51.30;2227.20;;;;;;5072969;28;20100;-65
2023/12/20 00:26:07;;;;;;;335.48;149.88;;;51.30;2227.20;;;;;;5074853;28;20021;-70
2023/12/20 00:28:33;;;;;;;319.67;145.80;;;51.30;2227.20;;;;;;5074020;28;20033;-64
2023/12/20 00:30:58;;;;;;;309.52;136.10;;;51.30;2227.20;;;;;;5074847;28;20070;-66
2023/12/20 00:33:24;;;;;;;317.67;134.32;;;51.30;2227.20;;;;;;5069840;28;20111;-66
2023/12/20 00:35:50;;;;;;;321.05;130.48;;;51.20;2227.20;;;;;;5076320;28;20016;-67
2023/12/20 00:38:16;;;;;;;352.98;133.90;;;51.20;2227.20;;;;;;5076034;28;20032;-67
2023/12/20 00:40:41;;;;;;;323.75;127.72;;;26.50;2201.60;;;;;;5074052;28;20552;-66
2023/12/20 00:43:07;;;;;;;336.75;128.90;;;26.40;2201.60;;;;;;5074782;28;20485;-67
2023/12/20 00:45:33;;;;;;;292.40;122.25;;;26.40;2201.60;;;;;;5074730;28;20024;-65
2023/12/20 00:47:59;;;;;;;319.98;124.10;;;26.40;2201.60;;;;;;5074489;28;20025;-64
2023/12/20 00:50:28;;;;;;;299.85;121.05;;;26.40;2201.60;;;;;;5075097;28;20036;-65
2023/12/20 00:52:54;;;;;;;262.70;116.45;;;26.30;2201.60;;;;;;5073997;28;20031;-71
2023/12/20 00:55:20;;;;;;;269.70;118.22;;;26.20;2201.60;;;;;;5076176;28;20051;-65
2023/12/20 00:57:45;;;;;;;260.25;117.75;;;26.30;2201.60;;;;;;5073224;28;20025;-66
2023/12/20 01:00:13;;;;;;;253.02;115.75;;;26.20;2201.60;;;;;;5074636;28;20082;-65
2023/12/20 01:02:39;;;;;;;246.10;112.53;;;26.20;2201.60;;;;;;5072468;28;20808;-65
2023/12/20 01:05:05;;;;;;;253.10;115.97;;;26.10;2201.60;;;;;;5074735;28;20047;-66
2023/12/20 01:07:30;;;;;;;244.80;112.90;;;26.10;2201.60;;;;;;5072314;28;20036;-64
2023/12/20 01:09:56;;;;;;;247.00;112.45;;;26.10;2201.60;;;;;;5070982;28;20497;-67
2023/12/20 01:12:22;;;;;;;241.88;112.25;;;26.10;2201.60;;;;;;5072371;28;20489;-64
2023/12/20 01:14:47;;;;;;;231.73;110.07;;;26.10;2201.60;;;;;;5073486;28;20021;-64
2023/12/20 01:17:13;;;;;;;244.65;113.55;;;26.10;2201.60;;;;;;5071689;28;20043;-65
2023/12/20 01:19:39;;;;;;;271.42;122.07;;;26.10;2201.60;;;;;;5071552;28;20067;-64
2023/12/20 01:22:04;;;;;;;327.65;137.57;;;26.10;2201.60;;;;;;5074028;28;20021;-65
2023/12/20 01:24:30;;;;;;;419.70;166.07;;;26.10;2201.60;;;;;;5067924;28;20033;-64
2023/12/20 01:26:56;;;;;;;425.15;162.38;;;26.10;2201.60;;;;;;5071648;28;20021;-66
2023/12/20 01:29:22;;;;;;;413.20;169.18;;;26.00;2201.60;;;;;;5075344;28;20032;-66
2023/12/20 01:31:47;;;;;;;387.38;154.90;;;26.00;2201.60;;;;;;5071824;28;20379;-69
2023/12/20 01:34:13;;;;;;;317.15;136.13;;;26.00;2201.60;;;;;;5055750;28;20056;-66
2023/12/20 01:36:38;;;;;;;277.77;121.07;;;26.00;2201.60;;;;;;5055662;28;20111;-67
2023/12/20 01:39:04;;;;;;;258.83;115.25;;;25.90;2201.60;;;;;;5055819;28;20403;-66
2023/12/20 01:41:30;;;;;;;237.18;108.70;;;25.90;2201.60;;;;;;5065506;28;20032;-66
2023/12/20 01:43:56;;;;;;;232.25;106.43;;;25.90;2201.60;;;;;;5075476;28;20071;-64
2023/12/20 01:46:22;;;;;;;226.45;101.80;;;25.90;2201.60;;;;;;5072073;28;20040;-67
2023/12/20 01:48:48;;;;;;;229.43;101.75;;;25.90;2201.60;;;;;;5075648;28;20351;-65
2023/12/20 01:51:15;;;;;;;209.15;96.57;;;25.90;2201.60;;;;;;5075419;28;20525;-66
2023/12/20 01:53:42;;;;;;;209.05;95.43;;;25.80;2201.60;;;;;;5074396;28;20072;-64
2023/12/20 01:56:08;;;;;;;201.85;92.50;;;25.70;2201.60;;;;;;5073677;28;20044;-65
2023/12/20 01:58:34;;;;;;;196.88;93.10;;;25.70;2201.60;;;;;;5075261;28;20024;-65
2023/12/20 02:01:00;;;;;;;209.07;94.03;;;25.70;2201.60;;;;;;5057185;28;20044;-67
2023/12/20 02:03:29;;;;;;;206.57;96.07;;;25.70;2201.60;;;;;;5072867;28;20110;-64
2023/12/20 02:05:55;;;;;;;228.88;98.43;;;25.60;2201.60;;;;;;5075119;28;20028;-65
2023/12/20 02:08:20;;;;;;;217.07;92.93;;;25.60;2201.60;;;;;;5075466;28;20111;-65
2023/12/20 02:10:47;;;;;;;226.27;92.38;;;0.90;2201.60;;;;;;5075001;28;20028;-64
2023/12/20 02:13:15;;;;;;;244.75;95.07;;;0.90;2201.60;;;;;;5069038;28;20025;-66
2023/12/20 02:15:43;;;;;;;232.07;93.88;;;0.90;2201.60;;;;;;5075161;28;20021;-64
2023/12/20 02:18:09;;;;;;;220.88;93.68;;;0.80;2201.60;;;;;;5074669;28;20020;-65
2023/12/20 02:20:34;;;;;;;216.80;92.18;;;0.80;2201.60;;;;;;5074428;28;20162;-65
2023/12/20 02:23:00;;;;;;;224.20;92.18;;;0.70;2201.60;;;;;;5071743;28;20032;-67
2023/12/20 02:25:26;;;;;;;240.52;95.15;;;0.60;2201.60;;;;;;5074354;28;20017;-63
2023/12/20 02:27:52;;;;;;;222.80;91.95;;;0.70;2201.60;;;;;;5058884;28;20036;-63
2023/12/20 02:30:18;;;;;;;210.95;94.20;;;0.60;2201.60;;;;;;5073199;28;20049;-70
2023/12/20 02:32:43;;;;;;;206.48;92.75;;;0.60;2201.60;;;;;;5074636;28;20021;-65
2023/12/20 02:35:09;;;;;;;203.70;90.07;;;0.50;2201.60;;;;;;5074595;28;20360;-69
2023/12/20 02:37:35;;;;;;;254.77;92.18;;;0.50;2201.60;;;;;;5074144;28;20403;-65
2023/12/20 02:40:00;;;;;;;192.02;89.32;;;0.40;2201.60;;;;;;5071667;28;20483;-62
2023/12/20 02:42:26;;;;;;;201.88;91.63;;;0.30;2201.60;;;;;;5073942;28;20035;-65
2023/12/20 02:44:51;;;;;;;328.77;94.45;;;0.30;2201.60;;;;;;5074594;28;20296;-63
2023/12/20 02:47:17;;;;;;;232.85;89.97;;;0.70;2201.60;;;;;;5074623;28;20792;-69
2023/12/20 02:49:43;;;;;;;193.90;87.68;;;0.10;2201.60;;;;;;5074401;28;20360;-68
2023/12/20 02:52:09;;;;;;;201.05;91.28;;;0.20;2201.60;;;;;;5073668;28;20025;-63
2023/12/20 02:54:35;;;;;;;196.98;89.88;;;0.20;2201.60;;;;;;5074150;28;20045;-64
2023/12/20 02:57:00;;;;;;;218.25;92.75;;;0.20;2201.60;;;;;;5074274;28;20032;-71
2023/12/20 02:59:26;;;;;;;199.75;88.15;;;0.20;2201.60;;;;;;5071602;28;20032;-64
2023/12/20 03:01:52;;;;;;;229.98;84.43;;;0.20;2201.60;;;;;;5072494;28;20090;-67
2023/12/20 03:04:20;;;;;;;233.63;87.97;;;0.20;2201.60;;;;;;5073746;28;20028;-66
2023/12/20 03:06:46;;;;;;;250.55;87.10;;;0.10;2201.60;;;;;;5055941;28;20021;-63
2023/12/20 03:09:12;;;;;;;212.07;88.43;;;0.10;2201.60;;;;;;5055978;28;20089;-65
2023/12/20 03:11:37;;;;;;;175.15;82.50;;;0.00;2201.60;;;;;;5073632;28;20028;-65
2023/12/20 03:14:03;;;;;;;209.07;85.40;;;0.00;2201.60;;;;;;5073492;28;20076;-68
2023/12/20 03:16:29;;;;;;;202.20;82.82;;;0.00;2201.60;;;;;;5074066;28;20036;-63
2023/12/20 03:18:54;;;;;;;174.00;83.30;;;12.90;2201.60;;;;;;5070624;28;20025;-64
2023/12/20 03:21:20;;;;;;;185.30;85.55;;;12.90;2201.60;;;;;;5073109;28;20127;-66
2023/12/20 03:23:46;;;;;;;177.00;83.63;;;0.00;2201.60;;;;;;5073944;28;20451;-65
2023/12/20 03:26:11;;;;;;;185.05;86.35;;;0.00;2201.60;;;;;;5073752;28;20098;-63
2023/12/20 03:28:37;;;;;;;184.63;84.32;;;0.00;2201.60;;;;;;5073898;28;20035;-66
2023/12/20 03:31:03;;;;;;;187.05;84.90;;;0.10;2201.60;;;;;;5074072;28;20028;-68
2023/12/20 03:33:29;;;;;;;184.05;84.97;;;0.00;2201.60;;;;;;5073339;28;20123;-65
2023/12/20 03:35:55;;;;;;;183.45;86.28;;;0.10;2201.60;;;;;;5069898;28;20016;-63
2023/12/20 03:38:23;;;;;;;188.02;84.70;;;0.10;2201.60;;;;;;5063114;28;20031;-65
2023/12/20 03:40:49;;;;;;;200.40;89.15;;;0.00;2201.60;;;;;;5073209;28;20055;-67
2023/12/20 03:43:15;;;;;;;190.65;83.13;;;0.00;2201.60;;;;;;5073743;28;20025;-64
2023/12/20 03:45:43;;;;;;;191.35;87.88;;;0.00;2201.60;;;;;;5074079;28;20540;-66
2023/12/20 03:48:08;;;;;;;189.95;86.35;;;0.00;2201.60;;;;;;5073504;28;20103;-67
2023/12/20 03:50:35;;;;;;;198.18;86.35;;;0.00;2201.60;;;;;;5073225;28;20407;-66
2023/12/20 03:53:01;;;;;;;192.20;84.88;;;0.00;2201.60;;;;;;5073677;28;20045;-69
2023/12/20 03:55:27;;;;;;;182.05;83.63;;;0.00;2201.60;;;;;;5068408;28;20032;-66
2023/12/20 03:57:53;;;;;;;180.02;83.53;;;13.00;2201.60;;;;;;5054969;28;20032;-67
2023/12/20 04:00:19;;;;;;;186.85;83.93;;;12.90;2201.60;;;;;;5072943;28;20081;-69
2023/12/20 04:02:45;;;;;;;184.85;83.13;;;12.90;2201.60;;;;;;5072582;28;20040;-64
2023/12/20 04:05:10;;;;;;;188.02;84.15;;;12.90;2201.60;;;;;;5093295;28;20063;-63
2023/12/20 04:07:36;;;;;;;184.65;83.88;;;12.90;2201.60;;;;;;5093311;28;20020;-70
2023/12/20 04:10:03;;;;;;;185.23;82.65;;;13.00;2201.60;;;;;;5093397;28;20097;-68
2023/12/20 04:12:29;;;;;;;194.80;83.15;;;13.00;2201.60;;;;;;5084431;28;20031;-70
2023/12/20 04:14:55;;;;;;;186.77;82.22;;;13.00;2201.60;;;;;;5073239;28;20030;-62
2023/12/20 04:17:24;;;;;;;183.65;81.38;;;13.00;2201.60;;;;;;5073081;28;20096;-68
2023/12/20 04:19:50;;;;;;;181.75;79.82;;;13.10;2201.60;;;;;;5055123;28;20045;-67
2023/12/20 04:22:17;;;;;;;180.48;80.85;;;13.10;2201.60;;;;;;5073302;28;20031;-63
2023/12/20 04:24:43;;;;;;;177.40;81.15;;;13.10;2201.60;;;;;;5073431;28;20395;-69
2023/12/20 04:27:09;;;;;;;170.88;77.25;;;13.20;2201.60;;;;;;5065903;28;20029;-68
2023/12/20 04:29:38;;;;;;;169.18;75.82;;;13.30;2201.60;;;;;;5051883;28;20043;-68
2023/12/20 04:32:04;;;;;;;169.82;77.18;;;13.30;2201.60;;;;;;5071623;28;20016;-68
2023/12/20 04:34:30;;;;;;;176.15;78.25;;;13.30;2201.60;;;;;;5072575;28;20098;-68
2023/12/20 04:36:58;;;;;;;173.85;77.60;;;13.40;2201.60;;;;;;5073173;28;20029;-69
2023/12/20 04:39:24;;;;;;;187.20;78.07;;;13.40;2201.60;;;;;;5055189;28;20041;-67
2023/12/20 04:41:50;;;;;;;171.55;75.20;;;13.40;2201.60;;;;;;5073029;28;20352;-68
2023/12/20 04:44:16;;;;;;;189.02;78.05;;;13.50;2201.60;;;;;;5073134;28;20025;-69
2023/12/20 04:46:42;;;;;;;160.80;72.20;;;13.50;2201.60;;;;;;5072908;28;20021;-69
2023/12/20 04:49:08;;;;;;;172.75;75.20;;;13.60;2201.60;;;;;;5072519;28;20036;-69
2023/12/20 04:51:34;;;;;;;177.70;78.35;;;13.50;2201.60;;;;;;5069329;28;20024;-68
2023/12/20 04:54:00;;;;;;;173.15;77.00;;;13.60;2201.60;;;;;;5076208;28;20137;-69
2023/12/20 04:56:26;;;;;;;176.10;79.72;;;13.60;2201.60;;;;;;5068222;28;20052;-63
2023/12/20 04:58:52;;;;;;;175.80;77.05;;;13.70;2201.60;;;;;;5056656;28;20379;-68
2023/12/20 05:01:18;;;;;;;175.13;77.32;;;38.40;2201.60;;;;;;5056521;28;20033;-68
2023/12/20 05:03:43;;;;;;;182.85;81.10;;;38.40;2201.60;;;;;;5056652;28;20021;-71
2023/12/20 05:06:10;;;;;;;171.13;76.90;;;38.40;2201.60;;;;;;5056294;28;20086;-68
2023/12/20 05:08:35;;;;;;;180.40;77.95;;;38.40;2201.60;;;;;;5063089;28;20047;-71
2023/12/20 05:11:01;;;;;;;187.45;77.55;;;38.50;2201.60;;;;;;5076022;28;20036;-69
2023/12/20 05:13:27;;;;;;;175.60;76.10;;;38.50;2201.60;;;;;;5076484;28;20032;-70
2023/12/20 05:15:53;;;;;;;184.00;78.60;;;38.50;2201.60;;;;;;5076516;28;20024;-71
2023/12/20 05:18:18;;;;;;;179.02;76.85;;;38.40;2201.60;;;;;;5075879;28;20028;-70
2023/12/20 05:20:46;;;;;;;181.23;76.57;;;38.50;2201.60;;;;;;5076298;28;20087;-63
2023/12/20 05:23:13;;;;;;;205.07;79.07;;;38.50;2201.60;;;;;;5072354;28;20021;-69
2023/12/20 05:25:39;;;;;;;214.75;79.93;;;38.50;2201.60;;;;;;5076015;28;20017;-70
2023/12/20 05:28:05;;;;;;;179.00;72.15;;;38.60;2201.60;;;;;;5076101;28;20360;-66
2023/12/20 05:30:30;;;;;;;188.65;75.00;;;38.60;2201.60;;;;;;5076153;28;20025;-67
2023/12/20 05:32:56;;;;;;;203.68;74.72;;;38.50;2201.60;;;;;;5076145;28;20020;-69
2023/12/20 05:35:23;;;;;;;187.27;73.75;;;38.80;2201.60;;;;;;5075350;28;20391;-69
2023/12/20 05:37:51;;;;;;;187.52;74.85;;;38.60;2201.60;;;;;;5074566;28;20398;-70
2023/12/20 05:40:17;;;;;;;209.98;75.53;;;38.50;2201.60;;;;;;5072955;28;20059;-70
2023/12/20 05:42:43;;;;;;;189.70;73.30;;;38.60;2201.60;;;;;;5075878;28;20024;-70
2023/12/20 05:45:09;;;;;;;211.38;74.68;;;38.50;2201.60;;;;;;5048648;28;20039;-65
2023/12/20 05:47:38;;;;;;;193.98;73.30;;;38.50;2201.60;;;;;;5076081;28;20029;-65
2023/12/20 05:50:04;;;;;;;220.50;75.80;;;38.50;2201.60;;;;;;5075542;28;20029;-70
2023/12/20 05:52:30;;;;;;;206.18;77.57;;;38.40;2201.60;;;;;;5072666;28;20070;-64
2023/12/20 05:54:57;;;;;;;226.48;81.47;;;38.40;2201.60;;;;;;5074293;28;20080;-68
2023/12/20 05:57:23;;;;;;;225.40;80.25;;;38.50;2201.60;;;;;;5071919;28;20028;-66
2023/12/20 05:59:49;;;;;;;220.48;75.68;;;38.50;2201.60;;;;;;5074693;28;20479;-69
2023/12/20 06:02:14;;;;;;;214.02;78.10;;;38.50;2201.60;;;;;;5072752;28;20035;-72
2023/12/20 06:04:43;;;;;;;222.13;78.90;;;38.50;2201.60;;;;;;5074272;28;20032;-72
2023/12/20 06:07:15;;;;;;;211.38;79.38;;;38.50;2201.60;;;;;;5075028;28;20021;-71
2023/12/20 06:09:41;;;;;;;212.27;81.20;;;38.50;2201.60;;;;;;5065647;28;20016;-71
2023/12/20 06:12:08;;;;;;;238.18;77.32;;;38.50;2201.60;;;;;;5081709;28;20046;-67
2023/12/20 06:14:34;;;;;;;231.90;77.28;;;38.40;2201.60;;;;;;5075561;28;20021;-69
2023/12/20 06:17:01;;;;;;;229.77;78.38;;;38.50;2201.60;;;;;;5071026;28;20031;-73
2023/12/20 06:19:27;;;;;;;218.10;80.80;;;38.50;2201.60;;;;;;5071468;28;20056;-68
2023/12/20 06:21:56;;;;;;;320.65;89.47;;;38.50;2201.60;;;;;;5074504;28;20083;-70
2023/12/20 06:24:22;;;;;;;222.45;82.20;;;38.40;2201.60;;;;;;5074795;28;20495;-68
2023/12/20 06:26:48;;;;;;;246.93;82.47;;;38.40;2201.60;;;;;;5071894;28;20024;-67
2023/12/20 06:29:13;;;;;;;216.73;79.20;;;38.40;2201.60;;;;;;5074490;28;20025;-70
2023/12/20 06:31:39;;;;;;;264.48;82.35;;;38.50;2201.60;;;;;;5074548;28;20064;-72
2023/12/20 06:34:08;;;;;;;223.20;78.07;;;38.50;2201.60;;;;;;5074286;28;20027;-69
2023/12/20 06:36:33;;;;;;;215.15;80.45;;;38.60;2201.60;;;;;;5079827;28;20032;-62
2023/12/20 06:38:59;;;;;;;210.27;82.68;;;38.50;2201.60;;;;;;5064856;28;20033;-69
2023/12/20 06:41:25;;;;;;;258.25;86.57;;;38.60;2201.60;;;;;;5075440;28;20547;-64
2023/12/20 06:43:52;;;;;;;230.80;87.18;;;38.50;2201.60;;;;;;5071519;28;20089;-71
2023/12/20 06:46:18;;;;;;;263.38;99.10;;;38.50;2201.60;;;;;;5073655;28;20074;-72
2023/12/20 06:48:45;;;;;;;254.13;98.55;;;38.40;2201.60;;;;;;5073604;28;20017;-71
2023/12/20 06:51:19;;;;;;;264.10;101.32;;;38.40;2201.60;;;;;;5073292;28;20459;-70
2023/12/20 06:53:46;;;;;;;252.20;97.50;;;13.70;2201.60;;;;;;5058284;28;20048;-69
2023/12/20 06:56:12;;;;;;;209.93;85.28;;;13.70;2201.60;;;;;;5071253;28;20032;-64
2023/12/20 06:58:38;;;;;;;245.15;87.35;;;13.70;2201.60;;;;;;5083775;28;20033;-62
2023/12/20 07:01:05;;;;;;;250.50;85.75;;;13.70;2201.60;;;;;;5088136;28;20462;-71
2023/12/20 07:03:30;;;;;;;202.23;81.97;;;13.70;2201.60;;;;;;5073138;28;20024;-67
2023/12/20 07:05:56;;;;;;;230.57;89.70;;;13.60;2201.60;;;;;;5071443;28;20113;-62
2023/12/20 07:08:22;;;;;;;220.15;80.47;;;13.60;2201.60;;;;;;5073901;28;20031;-63
2023/12/20 07:10:48;;;;;;;190.85;77.13;;;13.70;2201.60;;;;;;5073893;28;20052;-62
2023/12/20 07:13:13;;;;;;;189.00;77.43;;;13.70;2201.60;;;;;;5064156;28;20537;-65
2023/12/20 07:15:39;;;;;;;174.02;70.45;;;13.70;2201.60;;;;;;5053434;28;20025;-65
2023/12/20 07:18:06;;;;;;;170.23;70.10;;;38.40;2201.60;;;;;;5057380;28;20478;-62
2023/12/20 07:20:32;;;;;;;176.30;68.97;;;38.40;2201.60;;;;;;5050358;28;20394;-62
2023/12/20 07:22:57;;;;;;;169.02;69.45;;;38.40;2201.60;;;;;;5062906;28;20112;-64
2023/12/20 07:25:26;;;;;;;168.98;68.63;;;38.40;2201.60;;;;;;5066899;28;20067;-72
2023/12/20 07:27:52;;;;;;;172.05;70.07;;;38.40;2201.60;;;;;;5067180;28;20036;-64
2023/12/20 07:30:17;;;;;;;164.80;70.00;;;13.70;2201.60;;;;;;5070895;28;20040;-66
2023/12/20 07:32:47;;;;;;;169.20;70.47;;;13.70;2201.60;;;;;;5073719;28;20086;-68
2023/12/20 07:35:12;;;;;;;179.13;71.47;;;13.60;2201.60;;;;;;5054420;28;20430;-70
2023/12/20 07:37:38;;;;;;;175.73;73.70;;;13.60;2201.60;;;;;;5077338;28;20110;-64
2023/12/20 07:40:04;;;;;;;196.15;73.47;;;13.50;2201.60;;;;;;5070736;28;20076;-61
2023/12/20 07:42:30;;;;;;;234.55;81.10;;;13.50;2201.60;;;;;;5069950;28;20024;-71
2023/12/20 07:44:56;;;;;;;189.52;74.15;;;13.50;2201.60;;;;;;5072424;28;20037;-71
2023/12/20 07:47:22;;;;;;;187.43;76.03;;;13.40;2201.60;;;;;;5065816;28;20028;-62
2023/12/20 07:49:49;;;;;;;183.95;72.35;;;13.30;2201.60;;;;;;5080826;28;20058;-68
2023/12/20 07:52:14;;;;;;;183.55;74.57;;;13.30;2201.60;;;;;;5065681;28;20021;-66
2023/12/20 07:54:40;;;;;;;180.60;73.10;;;13.30;2201.60;;;;;;5069115;28;20041;-63
2023/12/20 07:57:06;;;;;;;169.10;68.85;;;13.20;2201.60;;;;;;5071925;28;20013;-64
2023/12/20 07:59:32;;;;;;;165.05;66.22;;;13.20;2201.60;;;;;;5070264;28;20036;-63
2023/12/20 08:01:57;;;;;;;160.18;64.15;;;13.20;2201.60;;;;;;5059026;28;20028;-64
2023/12/20 08:04:26;;;;;;;162.15;67.65;;;13.20;2201.60;;;;;;5071358;28;20123;-70
2023/12/20 08:06:51;;;;;;;159.20;64.28;;;13.20;2201.60;;;;;;5071817;28;20117;-71
2023/12/20 08:09:17;;;;;;;166.65;67.80;;;13.10;2201.60;;;;;;5069732;28;20126;-64
2023/12/20 08:11:46;;;;;;;171.55;72.80;;;13.10;2201.60;;;;;;5083713;28;20020;-68
2023/12/20 08:14:12;;;;;;;158.32;63.58;;;0.00;2201.60;;;;;;5068254;28;20032;-63
2023/12/20 08:16:39;;;;;;;156.15;64.50;;;0.00;2201.60;;;;;;5072748;28;20430;-68
2023/12/20 08:19:05;;;;;;;151.35;64.18;;;13.10;2201.60;;;;;;5072741;28;20120;-61
2023/12/20 08:21:31;;;;;;;155.57;65.15;;;0.10;2201.60;;;;;;5072752;28;20127;-66
2023/12/20 08:24:00;;;;;;;155.25;66.55;;;0.20;2201.60;;;;;;5080169;28;20075;-64
2023/12/20 08:26:26;;;;;;;169.20;70.03;;;0.50;2201.60;;;;;;5075472;28;20034;-68
2023/12/20 08:28:52;;;;;;;161.40;65.78;;;0.30;2201.60;;;;;;5074973;28;20056;-69
2023/12/20 08:31:19;;;;;;;160.77;66.10;;;0.40;2201.60;;;;;;5059000;28;20025;-70
2023/12/20 08:33:45;;;;;;;160.48;70.47;;;0.50;2201.60;;;;;;5076088;28;20021;-69
2023/12/20 08:36:11;;;;;;;147.80;60.40;;;0.50;2201.60;;;;;;5073418;28;20029;-69
2023/12/20 08:38:37;;;;;;;154.73;62.22;;;0.40;2201.60;;;;;;5065676;28;20367;-71
2023/12/20 08:41:07;;;;;;;185.30;61.67;;;0.20;2201.60;;;;;;5071548;28;20120;-70
2023/12/20 08:43:34;;;;;;;149.13;59.50;;;0.10;2201.60;;;;;;5071510;28;20036;-62
2023/12/20 08:46:00;;;;;;;166.00;60.47;;;0.00;2201.60;;;;;;5078412;28;20021;-62
2023/12/20 08:48:28;;;;;;;159.45;65.18;;;0.10;2201.60;;;;;;5070915;28;20032;-61
2023/12/20 08:50:57;;;;;;;158.48;65.57;;;0.20;2201.60;;;;;;5073189;28;20025;-63
2023/12/20 08:53:22;;;;;;;158.60;60.67;;;0.30;2201.60;;;;;;5076525;28;20471;-64
2023/12/20 08:55:48;;;;;;;155.85;61.45;;;0.30;2201.60;;;;;;5067617;28;20043;-63
2023/12/20 08:58:14;;;;;;;155.80;63.30;;;0.50;2201.60;;;;;;5071210;28;20150;-63
2023/12/20 09:00:41;;;;;;;147.45;60.03;;;0.50;2201.60;;;;;;5076326;28;20037;-68
2023/12/20 09:03:09;;;;;;;141.18;58.90;;;0.50;2201.60;;;;;;5073634;28;20378;-62
2023/12/20 09:05:35;;;;;;;150.23;61.83;;;0.50;2201.60;;;;;;5075884;28;20086;-64
2023/12/20 09:08:01;;;;;;;155.82;58.47;;;0.70;2201.60;;;;;;5073466;28;20028;-62
2023/12/20 09:10:27;;;;;;;147.95;61.42;;;0.60;2201.60;;;;;;5074997;28;20533;-62
2023/12/20 09:12:56;;;;;;;149.38;61.22;;;0.60;2201.60;;;;;;5072776;28;20039;-63
2023/12/20 09:15:26;;;;;;;141.23;61.03;;;0.60;2201.60;;;;;;5071633;28;20057;-64
2023/12/20 09:17:52;;;;;;;135.82;55.83;;;0.70;2201.60;;;;;;5071267;28;20029;-64
2023/12/20 09:20:23;;;;;;;137.70;56.35;;;0.60;2201.60;;;;;;5072919;28;20041;-65
2023/12/20 09:22:52;;;;;;;149.00;58.60;;;0.60;2201.60;;;;;;5069565;28;20811;-61
2023/12/20 09:25:20;;;;;;;130.90;53.03;;;0.50;2201.60;;;;;;5072390;28;20063;-62
2023/12/20 09:27:46;;;;;;;155.57;60.83;;;0.30;2201.60;;;;;;5074431;28;20017;-62
2023/12/20 09:30:12;;;;;;;156.27;59.38;;;0.30;2201.60;;;;;;5071988;28;20028;-69
2023/12/20 09:32:38;;;;;;;161.48;64.63;;;0.20;2201.60;;;;;;5074465;28;20066;-62
2023/12/20 09:35:06;;;;;;;164.93;67.50;;;0.30;2201.60;;;;;;5075640;28;20048;-62
2023/12/20 09:37:31;;;;;;;170.85;71.63;;;0.40;2201.60;;;;;;5072627;28;20032;-61
2023/12/20 09:39:57;;;;;;;179.27;69.20;;;0.50;2201.60;;;;;;5072836;28;20036;-62
2023/12/20 09:42:35;;;;;;;171.65;69.13;;;0.60;2201.60;;;;;;5074141;28;20024;-65
2023/12/20 09:45:09;;;;;;;155.45;65.88;;;0.60;2201.60;;;;;;5073840;28;20070;-64
2023/12/20 09:47:35;;;;;;;159.80;64.80;;;0.80;2201.60;;;;;;5073485;28;20371;-62
2023/12/20 09:50:02;;;;;;;178.05;70.57;;;0.80;2201.60;;;;;;5073503;28;20020;-62
2023/12/20 09:52:29;;;;;;;168.07;70.15;;;0.90;2201.60;;;;;;5070287;28;20043;-63
2023/12/20 09:54:56;;;;;;;173.90;71.00;;;25.60;2201.60;;;;;;5072449;28;20041;-63
2023/12/20 09:57:25;;;;;;;165.13;72.07;;;25.70;2201.60;;;;;;5073405;28;20054;-63
2023/12/20 09:59:50;;;;;;;173.20;76.15;;;25.90;2201.60;;;;;;5074100;28;20075;-62
2023/12/20 10:02:21;;;;;;;193.13;83.22;;;25.90;2201.60;;;;;;5063713;28;20028;-63
2023/12/20 10:04:47;;;;;;;166.50;68.63;;;26.00;2201.60;;;;;;5071896;28;20017;-62
2023/12/20 10:07:13;;;;;;;161.80;59.42;;;25.90;2201.60;;;;;;5072902;28;20372;-66
2023/12/20 10:09:39;;;;;;;167.45;65.47;;;25.90;2201.60;;;;;;5072974;28;20039;-64
2023/12/20 10:12:08;;;;;;;169.35;68.18;;;25.90;2201.60;;;;;;5073754;28;20024;-64
2023/12/20 10:14:34;;;;;;;213.35;70.55;;;26.00;2201.60;;;;;;5070998;28;20028;-63
2023/12/20 10:17:04;;;;;;;170.27;68.05;;;26.00;2201.60;;;;;;5072353;28;20360;-62
2023/12/20 10:19:30;;;;;;;179.13;69.85;;;26.00;2201.60;;;;;;5074185;28;20029;-63
2023/12/20 10:21:57;;;;;;;196.68;72.10;;;26.00;2201.60;;;;;;5074207;28;20103;-64
2023/12/20 10:24:23;;;;;;;198.25;76.18;;;26.00;2201.60;;;;;;5073794;28;20030;-62
2023/12/20 10:27:05;;;;;;;194.85;74.00;;;26.10;2201.60;;;;;;5073664;28;20028;-63
2023/12/20 10:29:37;;;;;;;211.60;81.15;;;26.30;2201.60;;;;;;5074073;28;20021;-64
2023/12/20 10:32:27;;;;;;;203.60;78.03;;;26.20;2201.60;;;;;;5074439;28;20141;-64
2023/12/20 10:34:54;;;;;;;199.02;77.43;;;26.30;2201.60;;;;;;5074183;28;20021;-64
2023/12/20 10:37:20;;;;;;;211.95;84.55;;;26.30;2201.60;;;;;;5073704;28;20028;-64
2023/12/20 10:39:56;;;;;;;183.65;72.57;;;26.40;2201.60;;;;;;5071680;28;20036;-70
2023/12/20 10:42:29;;;;;;;192.75;68.00;;;26.20;2201.60;;;;;;5074253;28;20017;-64
2023/12/20 10:44:55;;;;;;;182.85;64.55;;;26.20;2201.60;;;;;;5073038;28;20383;-63
2023/12/20 10:47:20;;;;;;;204.82;66.82;;;26.10;2201.60;;;;;;5073772;28;20017;-64
2023/12/20 10:49:46;;;;;;;233.30;69.32;;;26.10;2201.60;;;;;;5067193;28;20469;-63
2023/12/20 10:52:13;;;;;;;274.98;71.72;;;26.00;2201.60;;;;;;5071097;28;20032;-64
2023/12/20 10:54:43;;;;;;;214.65;73.68;;;26.10;2201.60;;;;;;5070899;28;20052;-63
2023/12/20 10:57:09;;;;;;;214.50;67.80;;;26.00;2201.60;;;;;;5072699;28;20070;-65
2023/12/20 10:59:37;;;;;;;215.68;72.65;;;25.90;2201.60;;;;;;5071696;28;20059;-62
2023/12/20 11:02:06;;;;;;;211.02;69.30;;;26.10;2201.60;;;;;;5069168;28;20075;-70
2023/12/20 11:04:50;;;;;;;221.82;75.05;;;26.00;2201.60;;;;;;5071844;28;20043;-63
2023/12/20 11:07:44;;;;;;;194.80;65.47;;;26.10;2201.60;;;;;;5071573;28;20033;-64
2023/12/20 11:10:29;;;;;;;186.73;59.95;;;26.10;2201.60;;;;;;5068625;28;20024;-64
2023/12/20 11:13:12;;;;;;;178.52;59.63;;;26.30;2201.60;;;;;;5053717;28;20479;-63
2023/12/20 11:15:38;;;;;;;285.42;65.72;;;26.40;2201.60;;;;;;5071490;28;20025;-63
2023/12/20 11:18:08;;;;;;;181.90;69.03;;;26.50;2201.60;;;;;;5079176;28;20043;-64
2023/12/20 11:20:39;;;;;;;203.27;75.47;;;26.40;2201.60;;;;;;5085972;28;20035;-64
2023/12/20 11:23:06;;;;;;;198.23;76.60;;;51.20;2227.20;;;;;;5093992;28;20020;-65
2023/12/20 11:25:47;;;;;;;187.20;72.05;;;51.30;2227.20;;;;;;5053186;28;20490;-67
2023/12/20 11:28:13;;;;;;;189.95;69.47;;;51.30;2227.20;;;;;;5072421;28;20479;-64
2023/12/20 11:30:50;;;;;;;193.43;75.25;;;51.30;2227.20;;;;;;5068210;28;20086;-66
2023/12/20 11:33:16;;;;;;;151.57;57.33;;;51.40;2227.20;;;;;;5065396;28;20032;-63
2023/12/20 11:35:42;;;;;;;186.38;66.00;;;51.50;2227.20;;;;;;5070936;28;20482;-63
2023/12/20 11:38:11;;;;;;;158.00;51.50;;;51.50;2227.20;;;;;;5070639;28;20024;-67
2023/12/20 11:40:37;;;;;;;168.68;60.05;;;51.50;2227.20;;;;;;5071627;28;20110;-63
2023/12/20 11:43:05;;;;;;;165.65;62.30;;;51.60;2227.20;;;;;;5071771;28;20035;-63
2023/12/20 11:45:31;;;;;;;153.50;58.72;;;51.50;2227.20;;;;;;5071228;28;20047;-64
2023/12/20 11:47:58;;;;;;;157.38;57.67;;;51.70;2227.20;;;;;;5070687;28;20013;-65
2023/12/20 11:50:24;;;;;;;155.65;57.53;;;51.90;2227.20;;;;;;5070150;28;20488;-69
2023/12/20 11:52:53;;;;;;;145.88;56.33;;;52.00;2227.20;;;;;;5072209;28;20065;-65
2023/12/20 11:55:19;;;;;;;153.15;53.55;;;52.10;2227.20;;;;;;5071894;28;20067;-65
2023/12/20 11:57:45;;;;;;;145.98;54.42;;;52.00;2227.20;;;;;;5053469;28;20471;-63
2023/12/20 12:00:11;;;;;;;141.32;52.72;;;52.10;2227.20;;;;;;5067853;28;20422;-66